Flight Track Log - Related Links

Times and Time Zones

All times are in EDT time to prevent confusion due to time zone crossing. See the AAL1862 flight status page for this flight to view local times or setup timezone preferences in your user account.

Time Position Orientation Groundspeed Altitude Reporting Facility
EDT Latitude Longitude Course Direction KTS MPH feet Rate Location/Type
Thu 08:50:45 AM 32.8833 -97.0333 57° Northeast 149 171 1,600  Level Dallas / Fort Worth TRACON
Thu 08:52:03 AM 32.8167 -97.0167 168° South 240 276 4,200 2,571 Climbing Dallas / Fort Worth TRACON
Thu 08:52:58 AM 32.7667 -96.9667 140° Southeast 289 333 7,300 2,495 Climbing Dallas / Fort Worth TRACON
Thu 08:53:00 AM 32.8338 -96.7094 53° Northeast  Level FlightAware Approximate
Thu 08:54:00 AM 32.9124 -96.5898 52° Northeast  Level FlightAware Approximate
Thu 08:55:00 AM 32.9863 -96.4660 57° Northeast  Level FlightAware Approximate
Thu 08:55:25 AM 32.8294 -96.7361 72° East 315 362 12,600  Level Fort Worth Center
Thu 08:56:00 AM 33.0553 -96.3379 57° Northeast  Level FlightAware Approximate
Thu 08:56:25 AM 32.8936 -96.6342 53° Northeast 364 419 15,400  Level Fort Worth Center
Thu 08:57:25 AM 32.9556 -96.5344 53° Northeast 405 466 17,700 2,200 Climbing Fort Worth Center
Thu 08:58:25 AM 33.0361 -96.4050 53° Northeast 429 494 19,800 2,100 Climbing Fort Worth Center
Thu 08:59:25 AM 33.0936 -96.2903 59° Northeast 446 513 21,900 1,600 Climbing Fort Worth Center
Thu 09:00:25 AM 33.1547 -96.1306 65° Northeast 464 534 23,000 600 Climbing Fort Worth Center
Thu 09:01:25 AM 33.2097 -96.0031 63° Northeast 475 547 23,100 900 Climbing Fort Worth Center
Thu 09:02:25 AM 33.2744 -95.8406 64° Northeast 484 557 24,800 1,700 Climbing Fort Worth Center
Thu 09:03:25 AM 33.3331 -95.6953 64° Northeast 507 583 26,500 2,300 Climbing Fort Worth Center
Thu 09:04:25 AM 33.3914 -95.5475 65° Northeast 501 577 29,400 2,300 Climbing Fort Worth Center
Thu 09:05:25 AM 33.4497 -95.3969 65° Northeast 495 570 31,100 1,350 Climbing Fort Worth Center
Thu 09:06:25 AM 33.5119 -95.2461 64° Northeast 495 570 32,100 1,000 Climbing Fort Worth Center
Thu 09:07:25 AM 33.5761 -95.0947 63° Northeast 495 570 33,100 1,150 Climbing Fort Worth Center
Thu 09:08:25 AM 33.6336 -94.9386 66° East 495 570 34,400 1,350 Climbing Fort Worth Center
Thu 09:09:25 AM 33.6972 -94.7819 64° Northeast 506 582 35,800 1,300 Climbing Fort Worth Center
Thu 09:10:25 AM 33.7564 -94.6303 65° Northeast 506 582 37,000 600 Climbing Fort Worth Center
Thu 09:11:25 AM 33.8136 -94.4836 65° Northeast 501 577 37,000  Level Fort Worth Center
Thu 09:13:44 AM 33.9578 -94.1136 65° Northeast 501 577 37,000  Level Memphis Center
Thu 09:14:44 AM 34.0164 -93.9658 64° Northeast 496 571 37,000  Level Memphis Center
Thu 09:15:44 AM 34.0728 -93.8150 66° East 496 571 37,000  Level Memphis Center
Thu 09:16:44 AM 34.1200 -93.6842 66° East 490 564 37,000  Level Memphis Center
Thu 09:17:44 AM 34.1761 -93.5406 65° Northeast 478 550 37,000  Level Memphis Center
Thu 09:18:44 AM 34.2297 -93.3969 66° East 473 544 37,000  Level Memphis Center
Thu 09:19:44 AM 34.2853 -93.2581 64° Northeast 467 537 37,000  Level Memphis Center
Thu 09:20:44 AM 34.3322 -93.1139 68° East 457 526 37,000  Level Memphis Center
Thu 09:21:44 AM 34.3833 -92.9744 66° East 446 513 37,000  Level Memphis Center
Thu 09:22:44 AM 34.4747 -92.8892 38° Northeast 437 503 37,000  Level Memphis Center
Thu 09:23:44 AM 34.5664 -92.7858 43° Northeast 421 484 37,000  Level Memphis Center
Thu 09:24:44 AM 34.6539 -92.6850 43° Northeast 426 490 37,000  Level Memphis Center
Thu 09:25:44 AM 34.7414 -92.5786 45° Northeast 431 496 37,000  Level Memphis Center
Thu 09:26:44 AM 34.8244 -92.4822 44° Northeast 431 496 37,000  Level Memphis Center
Thu 09:27:44 AM 34.9119 -92.3753 45° Northeast 426 490 37,000  Level Memphis Center
Thu 09:28:44 AM 35.0011 -92.2761 42° Northeast 431 496 37,000  Level Memphis Center
Thu 09:29:44 AM 35.0861 -92.1739 45° Northeast 431 496 37,000  Level Memphis Center
Thu 09:30:44 AM 35.1731 -92.0742 43° Northeast 431 496 37,000  Level Memphis Center
Thu 09:31:44 AM 35.2597 -91.9769 42° Northeast 431 496 37,000  Level Memphis Center
Thu 09:32:44 AM 35.3550 -91.8617 45° Northeast 431 496 37,000  Level Memphis Center
Thu 09:33:44 AM 35.4417 -91.7639 43° Northeast 426 490 37,000  Level Memphis Center
Thu 09:34:44 AM 35.5283 -91.6581 45° Northeast 426 490 37,000  Level Memphis Center
Thu 09:35:44 AM 35.6150 -91.5572 43° Northeast 426 490 37,000  Level Memphis Center
Thu 09:36:44 AM 35.6972 -91.4536 46° Northeast 431 496 37,000  Level Memphis Center
Thu 09:37:44 AM 35.7794 -91.3525 45° Northeast 426 490 37,000  Level Memphis Center
Thu 09:38:44 AM 35.8656 -91.2483 44° Northeast 426 490 37,000  Level Memphis Center
Thu 09:39:44 AM 35.9561 -91.1467 42° Northeast 431 496 37,000  Level Memphis Center
Thu 09:40:44 AM 36.0442 -91.0425 44° Northeast 431 496 37,000  Level Memphis Center
Thu 09:41:44 AM 36.1281 -90.9378 45° Northeast 431 496 37,000  Level Memphis Center
Thu 09:42:44 AM 36.2161 -90.8303 45° Northeast 431 496 37,000 -50 Level Memphis Center
Thu 09:43:44 AM 36.3019 -90.7253 45° Northeast 431 496 36,900 -550 Descending Memphis Center
Thu 09:44:44 AM 36.3897 -90.6200 44° Northeast 431 496 35,900 -950 Descending Memphis Center
Thu 09:45:44 AM 36.4775 -90.5119 45° Northeast 431 496 35,000 -450 Descending Memphis Center
Thu 09:46:44 AM 36.5650 -90.4033 45° Northeast 431 496 35,000  Level Memphis Center
Thu 09:47:44 AM 36.6528 -90.2950 45° Northeast 431 496 35,000 -100 Level Memphis Center
Thu 09:48:44 AM 36.7400 -90.1886 44° Northeast 431 496 34,800 -700 Descending Memphis Center
Thu 09:49:44 AM 36.8294 -90.0794 44° Northeast 431 496 33,600 -1,200 Descending Memphis Center
Thu 09:50:44 AM 36.9189 -89.9678 45° Northeast 436 502 32,400 -1,400 Descending Memphis Center
Thu 09:51:44 AM 37.0100 -89.8503 46° Northeast 442 509 30,800 -2,065 Descending Memphis Center
Thu 09:53:18 AM 37.1500 -89.6897 42° Northeast 479 551 27,100 -1,846 Descending Kansas City Center
Thu 09:54:20 AM 37.2714 -89.7178 350° North 462 532 26,000 -1,366 Descending Kansas City Center
Thu 09:55:21 AM 37.4158 -89.7800 341° North 457 526 24,300 -1,951 Descending Kansas City Center
Thu 09:56:23 AM 37.5331 -89.8264 343° North 446 513 22,000 -2,419 Descending Kansas City Center
Thu 09:57:25 AM 37.6350 -89.8675 342° North 432 497 19,300 -2,878 Descending Kansas City Center
Thu 09:58:26 AM 37.7439 -89.9133 342° North 419 482 16,100 -2,683 Descending Kansas City Center
Thu 09:59:28 AM 37.8733 -89.9650 343° North 418 481 13,800 -2,032 Descending Kansas City Center
Thu 10:00:30 AM 37.9897 -90.0117 342° North 408 470 11,900 -1,317 Descending Kansas City Center
Thu 10:01:31 AM 38.0883 -90.0519 342° North 395 455 11,100 -927 Descending Kansas City Center
Thu 10:02:33 AM 38.1928 -90.0844 346° North 389 448 10,000 -532 Descending Kansas City Center
Thu 10:03:35 AM 38.2892 -90.1000 353° North 357 411 10,000 -146 Level Kansas City Center
Thu 10:04:36 AM 38.3797 -90.1203 350° North 342 394 9,700 -927 Descending Kansas City Center
Thu 10:05:38 AM 38.4644 -90.1392 350° North 305 351 8,100 -1,694 Descending Kansas City Center
Thu 10:06:40 AM 38.5450 -90.1564 351° North 296 341 6,200 -1,839 Descending Kansas City Center

Login

Don't have an account? Register now (free) for customized features, flight alerts, and more!